createdAt,value
2016-10-11T00:01:02.333Z,1000.78
2016-10-11T00:02:12.320Z,1000.76
2016-10-11T00:03:22.612Z,1000.75
2016-10-11T00:04:32.916Z,1000.73
2016-10-11T00:05:42.585Z,1000.72
2016-10-11T00:06:51.933Z,1000.74
2016-10-11T00:08:02.219Z,1000.73
2016-10-11T00:09:12.527Z,1000.71
2016-10-11T00:10:22.826Z,1000.71
2016-10-11T00:11:33.113Z,1000.67
2016-10-11T00:12:43.402Z,1000.69
2016-10-11T00:13:53.693Z,1000.68
2016-10-11T00:15:03.670Z,1000.64
2016-10-11T00:16:13.664Z,1000.65
2016-10-11T00:17:23.377Z,1000.62
2016-10-11T00:18:33.653Z,1000.6
2016-10-11T00:19:43.936Z,1000.57
2016-10-11T00:20:54.211Z,1000.58
2016-10-11T00:22:04.498Z,1000.59
2016-10-11T00:23:14.786Z,1000.55
2016-10-11T00:24:24.757Z,1000.54
2016-10-11T00:25:34.429Z,1000.55
2016-10-11T00:26:44.101Z,1000.53
2016-10-11T00:27:54.396Z,1000.55
2016-10-11T00:29:04.679Z,1000.51
2016-10-11T00:30:14.661Z,1000.54
2016-10-11T00:31:24.948Z,1000.49
2016-10-11T00:32:35.225Z,1000.48
2016-10-11T00:33:44.901Z,1000.49
2016-10-11T00:34:54.564Z,1000.48
2016-10-11T00:36:04.855Z,1000.46
2016-10-11T00:37:14.824Z,1000.47
2016-10-11T00:38:24.513Z,1000.45
2016-10-11T00:39:34.790Z,1000.44
2016-10-11T00:40:44.789Z,1000.43
2016-10-11T00:41:55.085Z,1000.38
2016-10-11T00:43:04.761Z,1000.39
2016-10-11T00:44:14.737Z,1000.39
2016-10-11T00:45:24.719Z,1000.36
2016-10-11T00:46:34.415Z,1000.36
2016-10-11T00:47:44.696Z,1000.37
2016-10-11T00:48:54.983Z,1000.35
2016-10-11T00:50:05.265Z,1000.38
2016-10-11T00:51:15.238Z,1000.33
2016-10-11T00:52:25.221Z,1000.32
2016-10-11T00:53:35.194Z,1000.31
2016-10-11T00:54:45.168Z,1000.32
2016-10-11T00:55:55.157Z,1000.3
2016-10-11T00:57:05.451Z,1000.3
2016-10-11T00:58:15.441Z,1000.31
2016-10-11T00:59:25.425Z,1000.29
2016-10-11T01:00:35.711Z,1000.31
2016-10-11T01:01:45.704Z,1000.29
2016-10-11T01:02:56.009Z,1000.3
2016-10-11T01:04:05.659Z,1000.28
2016-10-11T01:05:15.642Z,1000.24
2016-10-11T01:06:25.923Z,1000.24
2016-10-11T01:07:35.906Z,1000.21
2016-10-11T01:08:46.182Z,1000.2
2016-10-11T01:09:56.478Z,1000.2
2016-10-11T01:11:06.448Z,1000.17
2016-10-11T01:12:16.448Z,1000.18
2016-10-11T01:13:26.415Z,1000.14
2016-10-11T01:14:36.701Z,1000.13
2016-10-11T01:15:46.364Z,1000.16
2016-10-11T01:16:56.646Z,1000.13
2016-10-11T01:18:06.924Z,1000.14
2016-10-11T01:19:16.922Z,1000.1
2016-10-11T01:20:26.914Z,1000.14
2016-10-11T01:21:37.191Z,1000.11
2016-10-11T01:22:46.888Z,1000.13
2016-10-11T01:23:57.165Z,1000.13
2016-10-11T01:25:07.447Z,1000.12
2016-10-11T01:26:17.742Z,1000.11
2016-10-11T01:27:28.045Z,1000.1
2016-10-11T01:28:38.025Z,1000.12
2016-10-11T01:29:48.021Z,1000.14
2016-10-11T01:30:57.991Z,1000.1
2016-10-11T01:32:08.004Z,1000.12
2016-10-11T01:33:17.993Z,1000.12
2016-10-11T01:34:27.965Z,1000.1
2016-10-11T01:35:37.957Z,1000.09
2016-10-11T01:36:48.236Z,1000.07
2016-10-11T01:37:58.525Z,1000.04
2016-10-11T01:39:07.896Z,1000.04
2016-10-11T01:40:17.868Z,1000.09
2016-10-11T01:41:28.167Z,1000.05
2016-10-11T01:42:38.146Z,1000.08
2016-10-11T01:43:48.459Z,1000.07
2016-10-11T01:44:58.430Z,1000.02
2016-10-11T01:46:08.413Z,1000.03
2016-10-11T01:47:18.698Z,1000
2016-10-11T01:48:28.351Z,1000.01
2016-10-11T01:49:38.322Z,999.97
2016-10-11T01:50:48.628Z,999.94
2016-10-11T01:51:58.612Z,999.96
2016-10-11T01:53:08.578Z,999.95
2016-10-11T01:54:18.551Z,999.95
2016-10-11T01:55:28.835Z,999.99
2016-10-11T01:56:39.172Z,999.92
2016-10-11T01:57:49.461Z,999.93
2016-10-11T01:58:59.439Z,999.94
2016-10-11T02:00:09.724Z,999.9
2016-10-11T02:01:20.015Z,999.9
2016-10-11T02:02:29.991Z,999.91
2016-10-11T02:03:40.264Z,999.89
2016-10-11T02:04:50.570Z,999.9
2016-10-11T02:06:00.845Z,999.89
2016-10-11T02:07:10.810Z,999.86
2016-10-11T02:08:20.785Z,999.87
2016-10-11T02:09:31.077Z,999.84
2016-10-11T02:10:41.422Z,999.85
2016-10-11T02:11:51.704Z,999.83
2016-10-11T02:13:01.691Z,999.82
2016-10-11T02:14:11.677Z,999.86
2016-10-11T02:15:21.674Z,999.85
2016-10-11T02:16:31.968Z,999.84
2016-10-11T02:17:42.263Z,999.83
2016-10-11T02:18:52.289Z,999.86
2016-10-11T02:20:02.600Z,999.83
2016-10-11T02:21:12.894Z,999.82
2016-10-11T02:22:23.184Z,999.81
2016-10-11T02:23:33.155Z,999.8
2016-10-11T02:24:43.144Z,999.8
2016-10-11T02:25:53.425Z,999.83
2016-10-11T02:27:03.405Z,999.8
2016-10-11T02:28:13.690Z,999.76
2016-10-11T02:29:23.981Z,999.76
2016-10-11T02:30:33.655Z,999.71
2016-10-11T02:31:43.953Z,999.75
2016-10-11T02:32:54.238Z,999.73
2016-10-11T02:34:04.535Z,999.7
2016-10-11T02:35:14.203Z,999.73
2016-10-11T02:36:24.481Z,999.66
2016-10-11T02:37:34.767Z,999.66
2016-10-11T02:38:45.067Z,999.64
2016-10-11T02:39:55.362Z,999.64
2016-10-11T02:41:05.652Z,999.63
2016-10-11T02:42:15.954Z,999.6
2016-10-11T02:43:26.251Z,999.53
2016-10-11T02:44:36.544Z,999.56
2016-10-11T02:45:46.830Z,999.55
2016-10-11T02:46:56.820Z,999.52
2016-10-11T02:48:06.808Z,999.54
2016-10-11T02:49:16.784Z,999.48
2016-10-11T02:50:27.078Z,999.47
2016-10-11T02:51:37.058Z,999.52
2016-10-11T02:52:47.037Z,999.52
2016-10-11T02:53:57.045Z,999.47
2016-10-11T02:55:07.347Z,999.52
2016-10-11T02:56:17.630Z,999.49
2016-10-11T02:57:27.307Z,999.48
2016-10-11T02:58:37.614Z,999.47
2016-10-11T02:59:47.899Z,999.46
2016-10-11T03:00:58.181Z,999.45
2016-10-11T03:32:32.203Z,999.19
2016-10-11T03:33:42.484Z,999.18
2016-10-11T03:34:52.760Z,999.18
2016-10-11T03:36:02.732Z,999.21
2016-10-11T03:37:13.010Z,999.2
2016-10-11T03:38:23.323Z,999.2
2016-10-11T03:39:33.331Z,999.18
2016-10-11T03:40:43.318Z,999.19
2016-10-11T03:41:53.610Z,999.19
2016-10-11T03:43:03.598Z,999.22
2016-10-11T03:44:13.887Z,999.21
2016-10-11T03:45:24.179Z,999.24
2016-10-11T03:46:34.468Z,999.25
2016-10-11T03:47:44.448Z,999.26
2016-10-11T03:48:54.435Z,999.22
2016-10-11T03:50:04.117Z,999.25
2016-10-11T03:51:14.410Z,999.25
2016-10-11T03:52:24.405Z,999.24
2016-10-11T03:53:34.082Z,999.25
2016-10-11T03:54:44.388Z,999.21
2016-10-11T03:55:54.677Z,999.23
2016-10-11T03:57:04.978Z,999.17
2016-10-11T03:58:14.959Z,999.17
2016-10-11T03:59:25.244Z,999.18
2016-10-11T04:00:35.547Z,999.15
2016-10-11T04:01:45.834Z,999.13
2016-10-11T04:02:56.116Z,999.1
2016-10-11T04:04:06.093Z,999.07
2016-10-11T04:05:16.384Z,999.09
2016-10-11T04:06:26.375Z,999.06
2016-10-11T04:07:36.361Z,999.06
2016-10-11T04:08:46.339Z,999.11
2016-10-11T04:09:56.330Z,999.08
2016-10-11T04:11:06.608Z,999.11
2016-10-11T04:12:16.889Z,999.06
2016-10-11T04:13:27.211Z,999.04
2016-10-11T04:14:37.497Z,999.07
2016-10-11T04:15:47.800Z,999.03
2016-10-11T04:16:58.097Z,999.03
2016-10-11T04:18:08.414Z,999.02
2016-10-11T04:19:18.385Z,999
2016-10-11T04:20:28.667Z,999.01
2016-10-11T04:21:38.984Z,999.02
2016-10-11T04:22:49.283Z,998.99
2016-10-11T04:23:59.571Z,999
2016-10-11T04:25:09.561Z,999.03
2016-10-11T04:26:19.544Z,999.02
2016-10-11T04:27:29.527Z,998.99
2016-10-11T04:28:39.193Z,998.99
2016-10-11T04:29:49.489Z,998.95
2016-10-11T04:30:59.820Z,998.99
2016-10-11T04:32:09.493Z,998.99
2016-10-11T04:33:19.804Z,998.99
2016-10-11T04:34:30.095Z,998.99
2016-10-11T04:35:40.379Z,998.96
2016-10-11T04:36:50.664Z,998.96
2016-10-11T04:38:00.657Z,998.98
2016-10-11T04:39:10.647Z,998.97
2016-10-11T04:40:21.154Z,998.96
2016-10-11T04:41:31.135Z,998.94
2016-10-11T04:42:40.807Z,998.95
2016-10-11T04:43:51.090Z,998.93
2016-10-11T04:45:01.380Z,998.92
2016-10-11T04:46:11.687Z,998.95
2016-10-11T04:47:21.061Z,998.93
2016-10-11T04:48:31.037Z,998.94
2016-10-11T04:49:41.038Z,998.91
2016-10-11T04:50:51.560Z,998.95
2016-10-11T04:52:01.837Z,998.89
2016-10-11T04:53:12.128Z,998.92
2016-10-11T04:54:21.814Z,998.95
2016-10-11T04:55:31.781Z,998.94
2016-10-11T04:56:42.067Z,998.98
2016-10-11T04:57:52.356Z,998.98
2016-10-11T04:59:02.645Z,998.98
2016-10-11T05:00:12.643Z,998.97
2016-10-11T05:01:22.609Z,999
2016-10-11T05:02:31.982Z,999
2016-10-11T05:03:42.266Z,998.97
2016-10-11T05:04:52.244Z,998.93
2016-10-11T05:06:02.235Z,998.98
2016-10-11T05:07:12.227Z,999.01
2016-10-11T05:08:22.204Z,999.01
2016-10-11T05:09:32.555Z,998.97
2016-10-11T05:10:42.227Z,998.98
2016-10-11T05:11:52.505Z,998.97
2016-10-11T05:13:02.781Z,998.97
2016-10-11T05:14:12.762Z,998.97
2016-10-11T05:15:23.044Z,998.99
2016-10-11T05:16:33.236Z,998.98
2016-10-11T05:17:42.933Z,998.98
2016-10-11T05:18:52.910Z,998.97
2016-10-11T05:20:02.285Z,998.99
2016-10-11T05:21:12.258Z,998.99
2016-10-11T05:22:22.240Z,998.97
2016-10-11T05:23:32.506Z,998.95
2016-10-11T05:24:42.498Z,998.95
2016-10-11T05:25:52.169Z,998.97
2016-10-11T05:27:02.451Z,998.94
2016-10-11T05:28:12.436Z,998.94
2016-10-11T05:29:22.418Z,998.94
2016-10-11T05:30:32.691Z,998.93
2016-10-11T05:31:42.993Z,998.97
2016-10-11T05:32:52.989Z,998.97
2016-10-11T05:34:03.266Z,998.94
2016-10-11T05:35:13.258Z,998.91
2016-10-11T05:36:23.563Z,998.91
2016-10-11T05:37:33.558Z,998.93
2016-10-11T05:38:43.843Z,998.9
2016-10-11T05:39:54.124Z,998.92
2016-10-11T05:41:04.096Z,998.94
2016-10-11T05:42:14.076Z,998.96
2016-10-11T05:43:24.055Z,998.96
2016-10-11T05:44:34.352Z,998.97
2016-10-11T05:45:44.635Z,999
2016-10-11T05:46:54.910Z,999.02
2016-10-11T05:48:05.198Z,998.98
2016-10-11T05:49:15.179Z,999
2016-10-11T05:50:25.470Z,999.01
2016-10-11T05:51:35.437Z,999.03
2016-10-11T05:52:45.727Z,999.02
2016-10-11T05:53:56.016Z,999.03
2016-10-11T05:55:05.991Z,999.02
2016-10-11T05:56:16.277Z,999
2016-10-11T05:57:26.576Z,999.01
2016-10-11T05:58:36.851Z,999.02
2016-10-11T05:59:47.148Z,999.02
2016-10-11T06:00:57.129Z,999
2016-10-11T06:02:07.107Z,998.99
2016-10-11T06:03:17.393Z,998.98
2016-10-11T06:04:27.700Z,998.98
2016-10-11T06:05:38.001Z,998.96
2016-10-11T06:06:48.286Z,999
2016-10-11T06:07:58.614Z,998.96
2016-10-11T06:09:08.585Z,999.01
2016-10-11T06:10:18.873Z,998.99
2016-10-11T06:11:28.855Z,999
2016-10-11T06:12:38.836Z,999
2016-10-11T06:13:48.837Z,999.04
2016-10-11T06:14:58.509Z,999
2016-10-11T06:16:08.483Z,999
2016-10-11T06:17:18.770Z,998.99
2016-10-11T06:18:29.056Z,999.03
2016-10-11T06:19:39.336Z,998.99
2016-10-11T06:20:49.637Z,999
2016-10-11T06:21:59.925Z,999
2016-10-11T06:23:09.902Z,999.02
2016-10-11T06:24:20.174Z,999.01
2016-10-11T06:25:30.151Z,998.99
2016-10-11T06:26:40.437Z,999.05
2016-10-11T06:27:50.422Z,999
2016-10-11T06:29:00.704Z,999.01
2016-10-11T06:30:10.988Z,999.02
2016-10-11T06:31:21.283Z,999
2016-10-11T06:32:31.276Z,999.02
2016-10-11T06:33:41.561Z,999.02
2016-10-11T06:34:51.869Z,999.02
2016-10-11T06:36:01.526Z,999.07
2016-10-11T06:37:11.821Z,999.1
2016-10-11T06:38:22.112Z,999.06
2016-10-11T06:39:32.392Z,999.08
2016-10-11T06:40:42.055Z,999.07
2016-10-11T06:41:52.352Z,999.11
2016-10-11T06:43:02.656Z,999.13
2016-10-11T06:44:12.637Z,999.09
2016-10-11T06:45:22.597Z,999.17
2016-10-11T06:46:32.895Z,999.15
2016-10-11T06:47:43.187Z,999.15
2016-10-11T06:48:53.176Z,999.15
2016-10-11T06:50:03.150Z,999.16
2016-10-11T06:51:13.457Z,999.18
2016-10-11T06:52:23.433Z,999.17
2016-10-11T06:53:33.415Z,999.16
2016-10-11T06:54:43.702Z,999.15
2016-10-11T06:55:53.985Z,999.16
2016-10-11T06:57:04.260Z,999.11
2016-10-11T06:58:14.229Z,999.11
2016-10-11T06:59:24.220Z,999.1
2016-10-11T07:00:34.506Z,999.12
2016-10-11T07:01:44.537Z,999.1
2016-10-11T07:02:54.848Z,999.12
2016-10-11T07:04:05.125Z,999.12
2016-10-11T07:05:15.087Z,999.11
2016-10-11T07:06:25.364Z,999.15
2016-10-11T07:07:35.684Z,999.15
2016-10-11T07:08:45.968Z,999.11
2016-10-11T07:09:56.263Z,999.13
2016-10-11T07:11:06.540Z,999.14
2016-10-11T07:12:16.831Z,999.11
2016-10-11T07:13:27.125Z,999.14
2016-10-11T07:14:37.413Z,999.1
2016-10-11T07:15:47.712Z,999.15
2016-10-11T07:16:57.695Z,999.12
2016-10-11T07:18:07.050Z,999.05
2016-10-11T07:19:17.339Z,999.09
2016-10-11T07:20:27.317Z,999.09
2016-10-11T07:21:37.616Z,999.07
2016-10-11T07:22:47.914Z,999.09
2016-10-11T07:23:58.205Z,999.1
2016-10-11T07:25:08.516Z,999.1
2016-10-11T07:26:18.816Z,999.13
2016-10-11T07:27:29.104Z,999.07
2016-10-11T07:28:38.766Z,999.04
2016-10-11T07:29:48.762Z,999.06
2016-10-11T07:30:58.744Z,999.05
2016-10-11T07:32:08.416Z,999.01
2016-10-11T07:33:18.402Z,999.05
2016-10-11T07:34:28.692Z,999.06
2016-10-11T07:35:38.683Z,999.04
2016-10-11T07:36:48.699Z,999.01
2016-10-11T07:37:58.998Z,999.06
2016-10-11T07:39:09.291Z,999.03
2016-10-11T07:40:19.572Z,998.99
2016-10-11T07:41:29.942Z,999
2016-10-11T07:42:40.226Z,998.98
2016-10-11T07:43:50.519Z,999.01
2016-10-11T07:45:00.209Z,999.02
2016-10-11T07:46:10.227Z,998.98
2016-10-11T07:47:20.220Z,999
2016-10-11T07:48:30.209Z,999.03
2016-10-11T07:49:40.199Z,998.98
2016-10-11T07:50:50.173Z,999.07
2016-10-11T07:52:00.175Z,999.03
2016-10-11T07:53:10.141Z,999.04
2016-10-11T07:54:20.117Z,999.07
2016-10-11T07:55:30.422Z,999.02
2016-10-11T07:56:40.716Z,999.03
2016-10-11T07:57:51.003Z,999.05
2016-10-11T07:59:00.978Z,999.02
2016-10-11T08:00:11.283Z,998.99
2016-10-11T08:01:21.253Z,998.99
2016-10-11T08:02:31.545Z,998.95
2016-10-11T08:03:41.536Z,998.93
2016-10-11T08:04:51.513Z,998.94
2016-10-11T08:06:01.500Z,998.91
2016-10-11T08:07:11.797Z,998.9
2016-10-11T08:08:21.469Z,998.89
2016-10-11T08:09:31.450Z,998.92
2016-10-11T08:10:41.425Z,998.92
2016-10-11T08:11:51.408Z,998.92
2016-10-11T08:13:00.774Z,998.88
2016-10-11T08:14:10.762Z,998.93
2016-10-11T08:15:21.054Z,998.86
2016-10-11T08:16:31.342Z,998.91
2016-10-11T08:17:41.633Z,998.88
2016-10-11T08:18:51.609Z,998.9
2016-10-11T08:20:01.577Z,998.88
2016-10-11T08:21:11.578Z,998.92
2016-10-11T08:22:21.564Z,998.89
2016-10-11T08:23:31.846Z,998.85
2016-10-11T08:24:41.828Z,998.84
2016-10-11T08:25:52.128Z,998.87
2016-10-11T08:27:02.096Z,998.8
2016-10-11T08:28:11.772Z,998.8
2016-10-11T08:29:22.069Z,998.8
2016-10-11T08:30:32.041Z,998.86
2016-10-11T08:31:42.349Z,998.81
2016-10-11T08:32:52.014Z,998.81
2016-10-11T08:34:02.297Z,998.86
2016-10-11T08:35:12.574Z,998.83
2016-10-11T08:36:22.859Z,998.86
2016-10-11T08:37:33.177Z,998.84
2016-10-11T08:38:43.479Z,998.84
2016-10-11T08:39:53.760Z,998.83
2016-10-11T08:41:03.734Z,998.86
2016-10-11T08:42:14.018Z,998.81
2016-10-11T08:43:23.995Z,998.84
2016-10-11T08:44:34.304Z,998.83
2016-10-11T08:45:44.294Z,998.85
2016-10-11T08:46:54.588Z,998.9
2016-10-11T08:48:04.892Z,998.91
2016-10-11T08:49:15.185Z,998.88
2016-10-11T08:50:25.164Z,998.89
2016-10-11T08:51:35.433Z,998.86
2016-10-11T08:52:45.740Z,998.85
2016-10-11T08:53:56.020Z,998.87
2016-10-11T08:55:06.317Z,998.88
2016-10-11T08:56:16.003Z,998.88
2016-10-11T08:57:26.322Z,998.86
2016-10-11T08:58:36.617Z,998.85
2016-10-11T08:59:46.919Z,998.89
2016-10-11T09:00:57.220Z,998.86
2016-10-11T09:02:07.514Z,998.83
2016-10-11T09:03:17.809Z,998.84
2016-10-11T09:04:28.118Z,998.81
2016-10-11T09:05:38.431Z,998.81
2016-10-11T09:06:48.733Z,998.78
2016-10-11T09:07:58.725Z,998.79
2016-10-11T09:09:09.016Z,998.76
2016-10-11T09:10:19.023Z,998.81
2016-10-11T09:11:29.007Z,998.79
2016-10-11T09:12:39.297Z,998.8
2016-10-11T09:13:49.294Z,998.77
2016-10-11T09:14:59.606Z,998.8
2016-10-11T09:16:09.903Z,998.74
2016-10-11T09:17:20.200Z,998.74
2016-10-11T09:18:29.871Z,998.76
2016-10-11T09:19:39.854Z,998.74
2016-10-11T09:20:49.831Z,998.72
2016-10-11T09:21:59.819Z,998.69
2016-10-11T09:23:10.113Z,998.66
2016-10-11T09:24:20.399Z,998.67
2016-10-11T09:25:30.702Z,998.68
2016-10-11T09:26:40.688Z,998.64
2016-10-11T09:27:50.996Z,998.63
2016-10-11T09:29:01.284Z,998.64
2016-10-11T09:30:11.564Z,998.68
2016-10-11T09:31:21.549Z,998.66
2016-10-11T09:32:31.845Z,998.62
2016-10-11T09:33:42.156Z,998.62
2016-10-11T09:34:52.135Z,998.65
2016-10-11T09:36:02.416Z,998.6
2016-10-11T09:37:12.695Z,998.63
2016-10-11T09:38:22.985Z,998.68
2016-10-11T09:39:32.971Z,998.68
2016-10-11T09:40:43.263Z,998.62
2016-10-11T09:41:53.258Z,998.61
2016-10-11T09:43:03.238Z,998.6
2016-10-11T09:44:13.544Z,998.64
2016-10-11T09:45:23.825Z,998.59
2016-10-11T09:46:33.799Z,998.61
2016-10-11T09:47:43.827Z,998.59
2016-10-11T09:48:54.126Z,998.58
2016-10-11T09:50:04.112Z,998.56
2016-10-11T09:51:14.084Z,998.58
2016-10-11T09:52:24.061Z,998.59
2016-10-11T09:53:34.342Z,998.59
2016-10-11T09:54:44.638Z,998.57
2016-10-11T09:55:54.613Z,998.54
2016-10-11T09:57:04.943Z,998.54
2016-10-11T09:58:14.610Z,998.54
2016-10-11T09:59:24.941Z,998.53
2016-10-11T10:00:35.237Z,998.53
2016-10-11T10:01:45.520Z,998.51
2016-10-11T10:02:55.811Z,998.55
2016-10-11T10:04:06.088Z,998.47
2016-10-11T10:05:16.384Z,998.46
2016-10-11T10:06:26.676Z,998.46
2016-10-11T10:07:36.658Z,998.44
2016-10-11T10:08:46.648Z,998.43
2016-10-11T10:09:56.942Z,998.43
2016-10-11T10:11:07.241Z,998.45
2016-10-11T10:12:17.530Z,998.44
2016-10-11T10:13:27.514Z,998.44
2016-10-11T10:14:37.810Z,998.43
2016-10-11T10:15:47.809Z,998.38
2016-10-11T10:16:58.100Z,998.41
2016-10-11T10:18:08.393Z,998.4
2016-10-11T10:19:18.375Z,998.36
2016-10-11T10:20:28.667Z,998.34
2016-10-11T10:21:38.971Z,998.35
2016-10-11T10:22:49.275Z,998.36
2016-10-11T10:23:59.276Z,998.34
2016-10-11T10:25:09.248Z,998.32
2016-10-11T10:26:19.545Z,998.33
2016-10-11T10:27:29.827Z,998.35
2016-10-11T10:28:39.814Z,998.37
2016-10-11T10:29:49.795Z,998.27
2016-10-11T10:31:00.076Z,998.23
2016-10-11T10:32:10.389Z,998.29
2016-10-11T10:33:20.675Z,998.22
2016-10-11T10:34:30.666Z,998.21
2016-10-11T10:35:40.327Z,998.21
2016-10-11T10:36:50.620Z,998.15
2016-10-11T10:38:00.921Z,998.14
2016-10-11T10:39:11.199Z,998.12
2016-10-11T10:40:21.486Z,998.11
2016-10-11T10:41:31.154Z,998.07
2016-10-11T10:42:41.440Z,998.11
2016-10-11T10:43:51.751Z,998.09
2016-10-11T10:45:01.747Z,998.1
2016-10-11T10:46:12.045Z,998.1
2016-10-11T10:47:22.333Z,998.06
2016-10-11T10:48:32.327Z,998.11
2016-10-11T10:49:42.647Z,998.08
2016-10-11T10:50:52.622Z,998.01
2016-10-11T10:52:02.817Z,998.04
2016-10-11T10:53:13.124Z,998.04
2016-10-11T10:54:23.416Z,998.02
2016-10-11T10:55:33.408Z,998.03
2016-10-11T10:56:43.697Z,998.01
2016-10-11T10:57:53.971Z,998
2016-10-11T10:59:04.639Z,997.89
2016-10-11T11:00:14.923Z,997.93
2016-10-11T11:01:24.909Z,997.93
2016-10-11T11:02:35.204Z,997.87
2016-10-11T11:03:45.532Z,997.92
2016-10-11T11:04:55.841Z,997.91
2016-10-11T11:06:05.829Z,997.85
2016-10-11T11:07:16.114Z,997.86
2016-10-11T11:08:26.396Z,997.91
2016-10-11T11:09:36.688Z,997.88
2016-10-11T11:10:46.976Z,997.84
2016-10-11T11:11:57.286Z,997.81
2016-10-11T11:13:07.587Z,997.79
2016-10-11T11:14:17.882Z,997.8
2016-10-11T11:15:28.569Z,997.76
2016-10-11T11:16:38.837Z,997.78
2016-10-11T11:17:49.359Z,997.77
2016-10-11T11:18:59.752Z,997.76
2016-10-11T11:20:09.732Z,997.77
2016-10-11T11:21:19.732Z,997.68
2016-10-11T11:22:30.017Z,997.69
2016-10-11T11:23:40.316Z,997.7
2016-10-11T11:24:50.618Z,997.68
2016-10-11T11:26:00.917Z,997.67
2016-10-11T11:27:10.903Z,997.63
2016-10-11T11:28:20.880Z,997.66
2016-10-11T11:29:31.162Z,997.62
2016-10-11T11:30:41.146Z,997.62
2016-10-11T11:31:51.144Z,997.63
2016-10-11T11:33:01.174Z,997.54
2016-10-11T11:34:11.168Z,997.55
2016-10-11T11:35:21.490Z,997.55
2016-10-11T11:36:31.191Z,997.58
2016-10-11T11:37:41.490Z,997.57
2016-10-11T11:38:51.834Z,997.57
2016-10-11T11:40:02.178Z,997.57
2016-10-11T11:41:11.864Z,997.54
2016-10-11T11:42:21.852Z,997.55
2016-10-11T11:43:31.547Z,997.5
2016-10-11T11:44:41.842Z,997.53
2016-10-11T11:45:52.165Z,997.5
2016-10-11T11:47:02.148Z,997.53
2016-10-11T11:48:12.455Z,997.5
2016-10-11T11:49:22.745Z,997.5
2016-10-11T11:50:33.048Z,997.51
2016-10-11T11:51:43.019Z,997.48
2016-10-11T11:52:53.320Z,997.44
2016-10-11T11:54:03.648Z,997.47
2016-10-11T11:55:13.350Z,997.45
2016-10-11T11:56:23.350Z,997.42
2016-10-11T11:57:33.690Z,997.42
2016-10-11T11:58:44.034Z,997.43
2016-10-11T11:59:54.355Z,997.38
2016-10-11T12:01:04.673Z,997.4
2016-10-11T12:02:14.979Z,997.35
2016-10-11T12:03:25.283Z,997.37
2016-10-11T12:04:35.617Z,997.39
2016-10-11T12:05:45.957Z,997.39
2016-10-11T12:06:55.954Z,997.38
2016-10-11T12:08:05.638Z,997.45
2016-10-11T12:09:15.928Z,997.48
2016-10-11T12:10:25.909Z,997.42
2016-10-11T12:11:36.229Z,997.37
2016-10-11T12:12:46.541Z,997.39
2016-10-11T12:13:56.845Z,997.37
2016-10-11T12:15:07.161Z,997.4
2016-10-11T12:16:17.478Z,997.35
2016-10-11T12:17:27.492Z,997.33
2016-10-11T12:18:37.495Z,997.34
2016-10-11T12:19:47.805Z,997.33
2016-10-11T12:20:58.126Z,997.34
2016-10-11T12:22:08.431Z,997.3
2016-10-11T12:23:18.435Z,997.33
2016-10-11T12:24:28.738Z,997.28
2016-10-11T12:25:38.431Z,997.31
2016-10-11T12:26:48.731Z,997.29
2016-10-11T12:27:59.055Z,997.23
2016-10-11T12:29:09.389Z,997.24
2016-10-11T12:30:19.714Z,997.28
2016-10-11T12:31:30.056Z,997.29
2016-10-11T12:32:40.374Z,997.28
2016-10-11T12:33:50.689Z,997.26
2016-10-11T12:35:01.001Z,997.24
2016-10-11T12:36:11.296Z,997.24
2016-10-11T12:37:21.598Z,997.24
2016-10-11T12:38:31.897Z,997.23
2016-10-11T12:39:42.206Z,997.2
2016-10-11T12:40:52.591Z,997.25
2016-10-11T12:42:02.899Z,997.19
2016-10-11T12:43:12.897Z,997.15
2016-10-11T12:44:23.219Z,997.19
2016-10-11T12:45:33.542Z,997.19
2016-10-11T12:46:43.831Z,997.25
2016-10-11T12:47:54.139Z,997.2
2016-10-11T12:49:04.151Z,997.19
2016-10-11T12:50:14.463Z,997.19
2016-10-11T12:51:24.497Z,997.15
2016-10-11T12:52:34.523Z,997.18
2016-10-11T12:53:44.823Z,997.09
2016-10-11T12:54:54.821Z,997.07
2016-10-11T12:56:05.121Z,997.1
2016-10-11T12:57:15.455Z,997.05
2016-10-11T12:58:25.494Z,997.03
2016-10-11T12:59:35.818Z,997.08
2016-10-11T13:00:45.850Z,997.05
2016-10-11T13:01:56.186Z,997.08
2016-10-11T13:03:06.201Z,997.11
2016-10-11T13:04:16.442Z,997.07
2016-10-11T13:05:26.461Z,997.05
2016-10-11T13:06:36.774Z,997.08
2016-10-11T13:07:47.100Z,997.07
2016-10-11T13:08:57.102Z,997.06
2016-10-11T13:10:07.099Z,997.09
2016-10-11T13:11:17.104Z,997.07
2016-10-11T13:12:27.107Z,997.05
2016-10-11T13:13:37.427Z,997.08
2016-10-11T13:14:47.451Z,997.02
2016-10-11T13:15:57.782Z,997.01
2016-10-11T13:17:08.114Z,997.08
2016-10-11T13:18:18.437Z,997.06
2016-10-11T13:19:28.768Z,997.02
2016-10-11T13:20:38.786Z,997.02
2016-10-11T13:21:49.370Z,997.01
2016-10-11T13:22:59.401Z,997.02
2016-10-11T13:24:09.722Z,996.99
2016-10-11T13:25:20.043Z,996.95
2016-10-11T13:26:30.375Z,996.96
2016-10-11T13:27:40.722Z,996.98
2016-10-11T13:28:51.036Z,996.96
2016-10-11T13:30:01.368Z,996.92
2016-10-11T13:31:11.697Z,996.95
2016-10-11T13:32:22.028Z,996.95
2016-10-11T13:33:32.322Z,996.9
2016-10-11T13:34:42.652Z,996.94
2016-10-11T13:35:53.026Z,996.89
2016-10-11T13:37:03.341Z,996.88
2016-10-11T13:38:13.363Z,996.84
2016-10-11T13:39:23.370Z,996.87
2016-10-11T13:40:33.681Z,996.88
2016-10-11T13:41:44.007Z,996.85
2016-10-11T13:42:54.068Z,996.86
2016-10-11T13:44:04.438Z,996.85
2016-10-11T13:45:14.761Z,996.85
2016-10-11T13:46:24.745Z,996.84
2016-10-11T13:47:35.055Z,996.84
2016-10-11T13:48:45.356Z,996.82
2016-10-11T13:49:55.691Z,996.82
2016-10-11T13:51:05.699Z,996.77
2016-10-11T13:52:16.026Z,996.76
2016-10-11T13:53:26.355Z,996.8
2016-10-11T13:54:36.660Z,996.76
2016-10-11T13:55:46.973Z,996.77
2016-10-11T13:56:57.001Z,996.76
2016-10-11T13:58:07.289Z,996.77
2016-10-11T13:59:17.283Z,996.73
2016-10-11T14:00:27.601Z,996.73
2016-10-11T14:01:37.895Z,996.76
2016-10-11T14:02:47.601Z,996.75
2016-10-11T14:03:57.915Z,996.78
2016-10-11T14:05:08.250Z,996.78
2016-10-11T14:06:18.625Z,996.8
2016-10-11T14:07:28.953Z,996.77
2016-10-11T14:08:38.966Z,996.79
2016-10-11T14:09:49.268Z,996.78
2016-10-11T14:10:59.595Z,996.77
2016-10-11T14:12:09.936Z,996.81
2016-10-11T14:13:20.246Z,996.81
2016-10-11T14:14:30.544Z,996.78
2016-10-11T14:15:40.874Z,996.74
2016-10-11T14:16:51.189Z,996.74
2016-10-11T14:18:01.195Z,996.73
2016-10-11T14:19:11.207Z,996.75
2016-10-11T14:20:21.225Z,996.75
2016-10-11T14:21:31.201Z,996.76
2016-10-11T14:22:41.518Z,996.7
2016-10-11T14:23:51.199Z,996.71
2016-10-11T14:25:01.512Z,996.71
2016-10-11T14:26:11.503Z,996.72
2016-10-11T14:27:21.806Z,996.7
2016-10-11T14:28:32.120Z,996.66
2016-10-11T14:29:42.161Z,996.7
2016-10-11T14:30:52.477Z,996.68
2016-10-11T14:32:02.463Z,996.63
2016-10-11T14:33:12.789Z,996.64
2016-10-11T14:34:22.817Z,996.66
2016-10-11T14:35:32.501Z,996.67
2016-10-11T14:36:42.826Z,996.62
2016-10-11T14:37:52.843Z,996.62
2016-10-11T14:39:03.172Z,996.61
2016-10-11T14:40:13.185Z,996.65
2016-10-11T14:41:23.197Z,996.54
2016-10-11T14:42:33.507Z,996.62
2016-10-11T14:43:43.526Z,996.53
2016-10-11T14:44:53.843Z,996.56
2016-10-11T14:46:04.164Z,996.66
2016-10-11T14:47:14.479Z,996.57
2016-10-11T14:48:24.499Z,996.57
2016-10-11T14:49:34.820Z,996.59
2016-10-11T14:50:45.140Z,996.59
2016-10-11T14:51:55.163Z,996.6
2016-10-11T14:53:05.492Z,996.63
2016-10-11T14:54:15.204Z,996.62
2016-10-11T14:55:25.533Z,996.62
2016-10-11T14:56:35.235Z,996.57
2016-10-11T14:57:45.545Z,996.6
2016-10-11T14:58:55.848Z,996.58
2016-10-11T15:00:06.172Z,996.58
2016-10-11T15:01:16.454Z,996.53
2016-10-11T15:02:26.161Z,996.57
2016-10-11T15:03:36.462Z,996.56
2016-10-11T15:04:46.457Z,996.57
2016-10-11T15:05:56.444Z,996.59
2016-10-11T15:07:06.456Z,996.55